sensor_id;sensor_type;location;lat;lon;timestamp;pressure;altitude;pressure_sealevel;temperature;humidity
76128;BME280;64873;50.102;14.434;2023-02-28T00:01:19;100537.50;;;-0.41;65.99
76128;BME280;64873;50.102;14.434;2023-02-28T00:03:45;100539.19;;;-0.40;66.79
76128;BME280;64873;50.102;14.434;2023-02-28T00:06:10;100531.34;;;-0.29;65.94
76128;BME280;64873;50.102;14.434;2023-02-28T00:08:36;100540.13;;;-0.30;66.43
76128;BME280;64873;50.102;14.434;2023-02-28T00:11:04;100532.63;;;-0.34;65.99
76128;BME280;64873;50.102;14.434;2023-02-28T00:13:30;100535.34;;;-0.47;66.46
76128;BME280;64873;50.102;14.434;2023-02-28T00:16:00;100533.94;;;-0.40;66.45
76128;BME280;64873;50.102;14.434;2023-02-28T00:18:27;100527.13;;;-0.31;66.51
76128;BME280;64873;50.102;14.434;2023-02-28T00:20:52;100533.69;;;-0.37;66.50
76128;BME280;64873;50.102;14.434;2023-02-28T00:23:18;100531.31;;;-0.40;66.64
76128;BME280;64873;50.102;14.434;2023-02-28T00:25:43;100534.97;;;-0.42;65.98
76128;BME280;64873;50.102;14.434;2023-02-28T00:28:08;100532.25;;;-0.41;66.37
76128;BME280;64873;50.102;14.434;2023-02-28T00:30:34;100539.19;;;-0.40;66.07
76128;BME280;64873;50.102;14.434;2023-02-28T00:32:59;100530.34;;;-0.39;66.93
76128;BME280;64873;50.102;14.434;2023-02-28T00:35:25;100544.00;;;-0.22;65.54
76128;BME280;64873;50.102;14.434;2023-02-28T00:37:50;100535.38;;;-0.24;65.81
76128;BME280;64873;50.102;14.434;2023-02-28T00:40:16;100538.00;;;-0.24;66.02
76128;BME280;64873;50.102;14.434;2023-02-28T00:42:41;100536.44;;;-0.38;66.68
76128;BME280;64873;50.102;14.434;2023-02-28T00:45:07;100546.81;;;-0.37;66.35
76128;BME280;64873;50.102;14.434;2023-02-28T00:47:36;100529.41;;;-0.38;65.39
76128;BME280;64873;50.102;14.434;2023-02-28T00:50:01;100538.00;;;-0.24;65.95
76128;BME280;64873;50.102;14.434;2023-02-28T00:52:27;100533.94;;;-0.40;66.63
76128;BME280;64873;50.102;14.434;2023-02-28T00:54:52;100538.22;;;-0.39;66.34
76128;BME280;64873;50.102;14.434;2023-02-28T00:57:17;100539.69;;;-0.35;66.25
76128;BME280;64873;50.102;14.434;2023-02-28T00:59:43;100535.97;;;-0.32;66.11
76128;BME280;64873;50.102;14.434;2023-02-28T01:02:08;100538.47;;;-0.31;65.87
76128;BME280;64873;50.102;14.434;2023-02-28T01:04:35;100538.50;;;-0.19;65.33
76128;BME280;64873;50.102;14.434;2023-02-28T01:07:00;100531.09;;;-0.25;65.79
76128;BME280;64873;50.102;14.434;2023-02-28T01:09:26;100534.22;;;-0.20;66.31
76128;BME280;64873;50.102;14.434;2023-02-28T01:11:51;100539.25;;;-0.17;65.09
76128;BME280;64873;50.102;14.434;2023-02-28T01:14:17;100531.38;;;-0.17;65.68
76128;BME280;64873;50.102;14.434;2023-02-28T01:16:43;100529.66;;;-0.18;66.26
76128;BME280;64873;50.102;14.434;2023-02-28T01:19:09;100531.69;;;-0.33;66.17
76128;BME280;64873;50.102;14.434;2023-02-28T01:21:35;100526.44;;;-0.22;66.10
76128;BME280;64873;50.102;14.434;2023-02-28T01:24:01;100524.22;;;-0.04;65.53
76128;BME280;64873;50.102;14.434;2023-02-28T01:26:26;100526.31;;;-0.32;66.93
76128;BME280;64873;50.102;14.434;2023-02-28T01:28:52;100524.13;;;-0.38;66.67
76128;BME280;64873;50.102;14.434;2023-02-28T01:31:18;100527.84;;;-0.40;66.64
76128;BME280;64873;50.102;14.434;2023-02-28T01:33:44;100528.69;;;-0.40;67.13
76128;BME280;64873;50.102;14.434;2023-02-28T01:36:13;100533.47;;;-0.34;66.43
76128;BME280;64873;50.102;14.434;2023-02-28T01:38:39;100536.00;;;-0.21;65.85
76128;BME280;64873;50.102;14.434;2023-02-28T01:41:06;100526.91;;;-0.28;66.12
76128;BME280;64873;50.102;14.434;2023-02-28T01:43:53;100531.91;;;-0.36;66.40
76128;BME280;64873;50.102;14.434;2023-02-28T01:46:18;100529.63;;;-0.30;66.34
76128;BME280;64873;50.102;14.434;2023-02-28T01:48:48;100521.75;;;-0.41;66.92
76128;BME280;64873;50.102;14.434;2023-02-28T01:51:22;100522.47;;;-0.39;66.55
76128;BME280;64873;50.102;14.434;2023-02-28T01:53:56;100520.06;;;-0.42;66.63
76128;BME280;64873;50.102;14.434;2023-02-28T01:56:28;100511.94;;;-0.50;66.54
76128;BME280;64873;50.102;14.434;2023-02-28T01:58:55;100509.81;;;-0.45;66.62
76128;BME280;64873;50.102;14.434;2023-02-28T02:01:22;100515.06;;;-0.45;66.70
76128;BME280;64873;50.102;14.434;2023-02-28T02:03:51;100505.84;;;-0.50;66.80
76128;BME280;64873;50.102;14.434;2023-02-28T02:06:22;100505.72;;;-0.49;66.48
76128;BME280;64873;50.102;14.434;2023-02-28T02:08:48;100509.78;;;-0.56;66.88
76128;BME280;64873;50.102;14.434;2023-02-28T02:11:17;100510.41;;;-0.52;66.35
76128;BME280;64873;50.102;14.434;2023-02-28T02:19:19;100510.72;;;-0.57;66.04
76128;BME280;64873;50.102;14.434;2023-02-28T02:24:56;100510.56;;;-0.67;66.05
76128;BME280;64873;50.102;14.434;2023-02-28T02:30:14;100502.53;;;-0.76;66.43
76128;BME280;64873;50.102;14.434;2023-02-28T02:36:02;100503.50;;;-0.77;65.97
76128;BME280;64873;50.102;14.434;2023-02-28T02:41:14;100510.66;;;-0.79;66.13
76128;BME280;64873;50.102;14.434;2023-02-28T02:43:50;100511.34;;;-0.77;66.36
76128;BME280;64873;50.102;14.434;2023-02-28T02:46:38;100513.41;;;-0.81;65.92
76128;BME280;64873;50.102;14.434;2023-02-28T02:49:09;100514.22;;;-0.81;66.19
76128;BME280;64873;50.102;14.434;2023-02-28T02:51:36;100506.84;;;-0.75;65.66
76128;BME280;64873;50.102;14.434;2023-02-28T02:54:22;100506.56;;;-0.84;65.93
76128;BME280;64873;50.102;14.434;2023-02-28T02:56:49;100503.00;;;-0.83;65.59
76128;BME280;64873;50.102;14.434;2023-02-28T02:59:18;100515.28;;;-0.83;65.61
76128;BME280;64873;50.102;14.434;2023-02-28T03:01:49;100511.09;;;-0.86;65.63
76128;BME280;64873;50.102;14.434;2023-02-28T03:04:21;100511.56;;;-0.92;65.29
76128;BME280;64873;50.102;14.434;2023-02-28T03:06:47;100513.47;;;-0.94;65.37
76128;BME280;64873;50.102;14.434;2023-02-28T03:09:13;100519.81;;;-0.85;65.07
76128;BME280;64873;50.102;14.434;2023-02-28T03:11:40;100514.31;;;-0.93;65.40
76128;BME280;64873;50.102;14.434;2023-02-28T03:17:17;100523.72;;;-0.91;64.81
76128;BME280;64873;50.102;14.434;2023-02-28T03:22:54;100525.78;;;-1.07;65.14
76128;BME280;64873;50.102;14.434;2023-02-28T03:28:42;100518.59;;;-1.16;66.00
76128;BME280;64873;50.102;14.434;2023-02-28T03:31:22;100521.31;;;-1.18;65.87
76128;BME280;64873;50.102;14.434;2023-02-28T03:33:53;100524.28;;;-1.22;65.84
76128;BME280;64873;50.102;14.434;2023-02-28T03:36:22;100515.16;;;-1.29;65.53
76128;BME280;64873;50.102;14.434;2023-02-28T03:44:01;100521.06;;;-1.39;66.26
76128;BME280;64873;50.102;14.434;2023-02-28T03:46:32;100519.41;;;-1.40;66.49
76128;BME280;64873;50.102;14.434;2023-02-28T03:51:33;100514.09;;;-1.51;67.05
76128;BME280;64873;50.102;14.434;2023-02-28T03:54:05;100510.28;;;-1.47;66.92
76128;BME280;64873;50.102;14.434;2023-02-28T03:57:00;100517.22;;;-1.46;66.42
76128;BME280;64873;50.102;14.434;2023-02-28T03:59:34;100513.25;;;-1.51;66.77
76128;BME280;64873;50.102;14.434;2023-02-28T04:02:02;100515.47;;;-1.58;66.46
76128;BME280;64873;50.102;14.434;2023-02-28T04:04:28;100524.25;;;-1.59;66.31
76128;BME280;64873;50.102;14.434;2023-02-28T04:07:01;100509.47;;;-1.60;67.21
76128;BME280;64873;50.102;14.434;2023-02-28T04:09:28;100525.88;;;-1.69;67.34
76128;BME280;64873;50.102;14.434;2023-02-28T04:11:53;100523.97;;;-1.67;67.55
76128;BME280;64873;50.102;14.434;2023-02-28T04:14:20;100524.16;;;-1.70;67.42
76128;BME280;64873;50.102;14.434;2023-02-28T04:16:46;100518.94;;;-1.70;67.62
76128;BME280;64873;50.102;14.434;2023-02-28T04:19:13;100522.72;;;-1.74;67.39
76128;BME280;64873;50.102;14.434;2023-02-28T04:21:41;100515.81;;;-1.75;67.09
76128;BME280;64873;50.102;14.434;2023-02-28T04:24:09;100527.97;;;-1.74;68.01
76128;BME280;64873;50.102;14.434;2023-02-28T04:26:39;100524.13;;;-1.81;68.04
76128;BME280;64873;50.102;14.434;2023-02-28T04:29:06;100528.16;;;-1.77;67.56
76128;BME280;64873;50.102;14.434;2023-02-28T04:31:32;100529.03;;;-1.90;68.63
76128;BME280;64873;50.102;14.434;2023-02-28T04:33:58;100530.38;;;-1.84;68.13
76128;BME280;64873;50.102;14.434;2023-02-28T04:36:23;100531.66;;;-1.90;68.09
76128;BME280;64873;50.102;14.434;2023-02-28T04:38:49;100528.81;;;-1.86;67.99
76128;BME280;64873;50.102;14.434;2023-02-28T04:41:15;100537.84;;;-1.91;68.40
76128;BME280;64873;50.102;14.434;2023-02-28T04:43:41;100522.53;;;-1.97;68.46
76128;BME280;64873;50.102;14.434;2023-02-28T04:46:08;100522.75;;;-2.00;68.61
76128;BME280;64873;50.102;14.434;2023-02-28T04:48:35;100534.69;;;-1.96;69.09
76128;BME280;64873;50.102;14.434;2023-02-28T04:51:09;100537.00;;;-1.91;68.81
76128;BME280;64873;50.102;14.434;2023-02-28T04:53:36;100532.28;;;-1.99;69.12
76128;BME280;64873;50.102;14.434;2023-02-28T04:56:04;100540.88;;;-1.97;68.66
76128;BME280;64873;50.102;14.434;2023-02-28T04:58:30;100543.50;;;-1.97;68.52
76128;BME280;64873;50.102;14.434;2023-02-28T05:01:05;100542.31;;;-2.05;68.98
76128;BME280;64873;50.102;14.434;2023-02-28T05:03:39;100548.84;;;-2.11;69.00
76128;BME280;64873;50.102;14.434;2023-02-28T05:06:08;100544.63;;;-2.01;68.84
76128;BME280;64873;50.102;14.434;2023-02-28T05:08:34;100548.09;;;-2.00;68.69
76128;BME280;64873;50.102;14.434;2023-02-28T05:11:00;100556.06;;;-2.02;68.26
76128;BME280;64873;50.102;14.434;2023-02-28T05:13:26;100554.81;;;-2.09;69.25
76128;BME280;64873;50.102;14.434;2023-02-28T05:15:52;100552.31;;;-2.10;68.93
76128;BME280;64873;50.102;14.434;2023-02-28T05:18:17;100554.81;;;-2.09;68.76
76128;BME280;64873;50.102;14.434;2023-02-28T05:20:43;100555.22;;;-2.15;69.42
76128;BME280;64873;50.102;14.434;2023-02-28T05:23:12;100552.06;;;-2.20;69.39
76128;BME280;64873;50.102;14.434;2023-02-28T05:25:39;100553.34;;;-2.13;69.01
76128;BME280;64873;50.102;14.434;2023-02-28T05:28:05;100554.81;;;-2.22;69.40
76128;BME280;64873;50.102;14.434;2023-02-28T05:30:31;100564.34;;;-2.21;69.58
76128;BME280;64873;50.102;14.434;2023-02-28T05:32:57;100566.72;;;-2.18;69.72
76128;BME280;64873;50.102;14.434;2023-02-28T05:35:23;100570.19;;;-2.17;69.29
76128;BME280;64873;50.102;14.434;2023-02-28T05:37:49;100564.34;;;-2.21;68.83
76128;BME280;64873;50.102;14.434;2023-02-28T05:40:14;100569.75;;;-2.24;69.17
76128;BME280;64873;50.102;14.434;2023-02-28T05:42:40;100573.22;;;-2.23;68.94
76128;BME280;64873;50.102;14.434;2023-02-28T05:45:07;100575.84;;;-2.23;69.04
76128;BME280;64873;50.102;14.434;2023-02-28T05:47:33;100584.75;;;-2.26;68.73
76128;BME280;64873;50.102;14.434;2023-02-28T05:49:59;100577.41;;;-2.33;69.24
76128;BME280;64873;50.102;14.434;2023-02-28T05:52:25;100576.78;;;-2.24;69.38
76128;BME280;64873;50.102;14.434;2023-02-28T05:54:50;100583.06;;;-2.27;69.04
76128;BME280;64873;50.102;14.434;2023-02-28T05:57:16;100586.53;;;-2.26;68.81
76128;BME280;64873;50.102;14.434;2023-02-28T05:59:41;100589.56;;;-2.20;68.40
76128;BME280;64873;50.102;14.434;2023-02-28T06:02:17;100580.75;;;-2.31;68.20
76128;BME280;64873;50.102;14.434;2023-02-28T06:04:43;100591.66;;;-2.25;68.47
76128;BME280;64873;50.102;14.434;2023-02-28T06:07:09;100593.84;;;-2.31;68.86
76128;BME280;64873;50.102;14.434;2023-02-28T06:09:36;100594.16;;;-2.23;70.10
76128;BME280;64873;50.102;14.434;2023-02-28T06:12:03;100587.78;;;-2.32;68.80
76128;BME280;64873;50.102;14.434;2023-02-28T06:14:31;100595.72;;;-2.33;68.58
76128;BME280;64873;50.102;14.434;2023-02-28T06:16:58;100599.81;;;-2.29;68.38
76128;BME280;64873;50.102;14.434;2023-02-28T06:19:24;100600.03;;;-2.32;68.80
76128;BME280;64873;50.102;14.434;2023-02-28T06:21:54;100601.16;;;-2.36;68.71
76128;BME280;64873;50.102;14.434;2023-02-28T06:24:21;100609.53;;;-2.31;68.33
76128;BME280;64873;50.102;14.434;2023-02-28T06:26:47;100603.88;;;-2.38;68.42
76128;BME280;64873;50.102;14.434;2023-02-28T06:29:13;100615.50;;;-2.29;68.48
76128;BME280;64873;50.102;14.434;2023-02-28T06:31:42;100622.00;;;-2.35;68.26
76128;BME280;64873;50.102;14.434;2023-02-28T06:34:09;100622.00;;;-2.35;68.21
76128;BME280;64873;50.102;14.434;2023-02-28T06:36:37;100626.63;;;-2.26;68.15
76128;BME280;64873;50.102;14.434;2023-02-28T06:39:02;100625.16;;;-2.30;67.90
76128;BME280;64873;50.102;14.434;2023-02-28T06:41:27;100624.56;;;-2.21;68.10
76128;BME280;64873;50.102;14.434;2023-02-28T06:43:53;100627.03;;;-2.32;68.09
76128;BME280;64873;50.102;14.434;2023-02-28T06:46:19;100623.31;;;-2.15;67.21
76128;BME280;64873;50.102;14.434;2023-02-28T06:48:45;100641.13;;;-2.07;67.33
76128;BME280;64873;50.102;14.434;2023-02-28T06:51:19;100636.09;;;-2.10;66.83
76128;BME280;64873;50.102;14.434;2023-02-28T06:53:47;100636.41;;;-2.15;66.73
76128;BME280;64873;50.102;14.434;2023-02-28T06:56:15;100641.00;;;-2.06;66.71
76128;BME280;64873;50.102;14.434;2023-02-28T06:58:41;100639.47;;;-1.96;66.60
76128;BME280;64873;50.102;14.434;2023-02-28T07:01:07;100637.97;;;-2.00;66.32
76128;BME280;64873;50.102;14.434;2023-02-28T07:03:35;100636.31;;;-2.01;65.68
76128;BME280;64873;50.102;14.434;2023-02-28T07:06:01;100644.69;;;-1.96;66.13
76128;BME280;64873;50.102;14.434;2023-02-28T07:08:27;100641.56;;;-1.88;65.43
76128;BME280;64873;50.102;14.434;2023-02-28T07:10:56;100643.34;;;-1.89;64.92
76128;BME280;64873;50.102;14.434;2023-02-28T07:13:22;100651.13;;;-1.87;64.79
76128;BME280;64873;50.102;14.434;2023-02-28T07:16:06;100647.97;;;-1.79;64.00
76128;BME280;64873;50.102;14.434;2023-02-28T07:18:33;100636.75;;;-1.81;63.55
76128;BME280;64873;50.102;14.434;2023-02-28T07:21:01;100651.66;;;-1.69;63.95
76128;BME280;64873;50.102;14.434;2023-02-28T07:23:27;100638.84;;;-1.74;63.16
76128;BME280;64873;50.102;14.434;2023-02-28T07:25:52;100653.75;;;-1.74;63.23
76128;BME280;64873;50.102;14.434;2023-02-28T07:28:18;100651.84;;;-1.72;62.87
76128;BME280;64873;50.102;14.434;2023-02-28T07:30:43;100644.72;;;-1.70;62.89
76128;BME280;64873;50.102;14.434;2023-02-28T07:33:10;100661.50;;;-1.60;62.53
76128;BME280;64873;50.102;14.434;2023-02-28T07:35:35;100661.28;;;-1.57;62.44
76128;BME280;64873;50.102;14.434;2023-02-28T07:38:01;100668.41;;;-1.59;62.16
76128;BME280;64873;50.102;14.434;2023-02-28T07:40:28;100658.88;;;-1.60;61.29
76128;BME280;64873;50.102;14.434;2023-02-28T07:42:53;100666.63;;;-1.58;61.03
76128;BME280;64873;50.102;14.434;2023-02-28T07:45:19;100661.38;;;-1.58;60.54
76128;BME280;64873;50.102;14.434;2023-02-28T07:47:45;100674.69;;;-1.49;61.09
76128;BME280;64873;50.102;14.434;2023-02-28T07:50:14;100673.66;;;-1.46;60.13
76128;BME280;64873;50.102;14.434;2023-02-28T07:52:40;100675.34;;;-1.45;60.58
76128;BME280;64873;50.102;14.434;2023-02-28T07:55:07;100675.75;;;-1.39;60.44
76128;BME280;64873;50.102;14.434;2023-02-28T07:57:33;100671.88;;;-1.33;60.53
76128;BME280;64873;50.102;14.434;2023-02-28T07:59:58;100669.84;;;-1.29;60.77
76128;BME280;64873;50.102;14.434;2023-02-28T08:02:24;100665.56;;;-1.30;60.23
76128;BME280;64873;50.102;14.434;2023-02-28T08:04:49;100671.56;;;-1.28;60.33
76128;BME280;64873;50.102;14.434;2023-02-28T08:07:16;100670.63;;;-1.27;60.28
76128;BME280;64873;50.102;14.434;2023-02-28T08:09:42;100671.13;;;-1.22;60.20
76128;BME280;64873;50.102;14.434;2023-02-28T08:12:09;100664.00;;;-1.20;60.19
76128;BME280;64873;50.102;14.434;2023-02-28T08:14:35;100661.66;;;-1.12;60.17
76128;BME280;64873;50.102;14.434;2023-02-28T08:17:01;100664.06;;;-1.09;59.90
76128;BME280;64873;50.102;14.434;2023-02-28T08:19:27;100662.28;;;-1.09;59.15
76128;BME280;64873;50.102;14.434;2023-02-28T08:21:52;100651.91;;;-1.10;59.31
76128;BME280;64873;50.102;14.434;2023-02-28T08:24:17;100663.94;;;-0.95;59.40
76128;BME280;64873;50.102;14.434;2023-02-28T08:26:43;100666.34;;;-0.92;59.19
76128;BME280;64873;50.102;14.434;2023-02-28T08:29:08;100649.88;;;-0.94;58.66
76128;BME280;64873;50.102;14.434;2023-02-28T08:31:34;100661.19;;;-0.81;58.07
76128;BME280;64873;50.102;14.434;2023-02-28T08:34:08;100656.97;;;-0.70;58.27
76128;BME280;64873;50.102;14.434;2023-02-28T08:36:33;100662.22;;;-0.70;58.17
76128;BME280;64873;50.102;14.434;2023-02-28T08:38:59;100661.34;;;-0.71;57.29
76128;BME280;64873;50.102;14.434;2023-02-28T08:41:25;100663.53;;;-0.65;58.53
76128;BME280;64873;50.102;14.434;2023-02-28T08:43:51;100660.25;;;-0.56;57.99
76128;BME280;64873;50.102;14.434;2023-02-28T08:46:17;100661.72;;;-0.51;57.90
76128;BME280;64873;50.102;14.434;2023-02-28T08:48:43;100657.06;;;-0.48;57.50
76128;BME280;64873;50.102;14.434;2023-02-28T08:51:16;100655.69;;;-0.30;57.43
76128;BME280;64873;50.102;14.434;2023-02-28T08:53:44;100660.75;;;-0.27;57.63
76128;BME280;64873;50.102;14.434;2023-02-28T08:56:15;100662.69;;;-0.17;57.03
76128;BME280;64873;50.102;14.434;2023-02-28T08:58:42;100664.03;;;-0.12;56.27
76128;BME280;64873;50.102;14.434;2023-02-28T09:01:13;100661.66;;;-0.04;56.35
76128;BME280;64873;50.102;14.434;2023-02-28T09:03:39;100651.38;;;-0.07;55.08
76128;BME280;64873;50.102;14.434;2023-02-28T09:06:06;100657.41;;;0.07;55.05
76128;BME280;64873;50.102;14.434;2023-02-28T09:08:32;100661.59;;;0.09;54.28
76128;BME280;64873;50.102;14.434;2023-02-28T09:10:58;100662.50;;;-0.03;54.34
76128;BME280;64873;50.102;14.434;2023-02-28T09:13:28;100648.78;;;0.05;54.48
76128;BME280;64873;50.102;14.434;2023-02-28T09:15:54;100648.69;;;0.17;53.80
76128;BME280;64873;50.102;14.434;2023-02-28T09:18:20;100654.25;;;0.37;54.08
76128;BME280;64873;50.102;14.434;2023-02-28T09:20:46;100655.78;;;0.39;53.65
76128;BME280;64873;50.102;14.434;2023-02-28T09:23:12;100643.84;;;0.46;53.44
76128;BME280;64873;50.102;14.434;2023-02-28T09:25:38;100654.00;;;0.51;53.53
76128;BME280;64873;50.102;14.434;2023-02-28T09:28:09;100651.38;;;0.40;53.61
76128;BME280;64873;50.102;14.434;2023-02-28T09:30:35;100651.16;;;0.54;52.80
76128;BME280;64873;50.102;14.434;2023-02-28T09:33:00;100642.19;;;0.68;51.84
76128;BME280;64873;50.102;14.434;2023-02-28T09:35:26;100651.16;;;0.65;52.31
76128;BME280;64873;50.102;14.434;2023-02-28T09:37:52;100644.69;;;0.69;51.23
76128;BME280;64873;50.102;14.434;2023-02-28T09:40:22;100639.31;;;0.82;51.50
76128;BME280;64873;50.102;14.434;2023-02-28T09:42:51;100633.81;;;0.85;51.36
76128;BME280;64873;50.102;14.434;2023-02-28T09:45:31;100639.44;;;0.92;51.35
76128;BME280;64873;50.102;14.434;2023-02-28T09:48:16;100640.13;;;0.94;50.97
76128;BME280;64873;50.102;14.434;2023-02-28T09:50:48;100651.19;;;0.76;50.83
76128;BME280;64873;50.102;14.434;2023-02-28T09:53:33;100649.94;;;0.80;51.31
76128;BME280;64873;50.102;14.434;2023-02-28T09:56:12;100648.28;;;0.91;51.46
76128;BME280;64873;50.102;14.434;2023-02-28T09:58:51;100654.25;;;1.04;50.98
76128;BME280;64873;50.102;14.434;2023-02-28T10:01:25;100648.03;;;0.94;51.50
76128;BME280;64873;50.102;14.434;2023-02-28T10:04:13;100657.84;;;1.03;51.25
76128;BME280;64873;50.102;14.434;2023-02-28T10:06:47;100651.41;;;0.85;51.88
76128;BME280;64873;50.102;14.434;2023-02-28T10:09:18;100654.00;;;1.07;51.83
76128;BME280;64873;50.102;14.434;2023-02-28T10:11:46;100641.19;;;1.25;51.61
76128;BME280;64873;50.102;14.434;2023-02-28T10:14:23;100635.66;;;1.28;51.24
76128;BME280;64873;50.102;14.434;2023-02-28T10:17:06;100644.41;;;1.17;50.88
76128;BME280;64873;50.102;14.434;2023-02-28T10:19:43;100646.09;;;1.29;50.71
76128;BME280;64873;50.102;14.434;2023-02-28T10:24:52;100642.47;;;1.42;50.28
76128;BME280;64873;50.102;14.434;2023-02-28T10:29:47;100639.59;;;1.33;50.70
76128;BME280;64873;50.102;14.434;2023-02-28T10:32:17;100630.97;;;1.43;50.48
76128;BME280;64873;50.102;14.434;2023-02-28T10:34:43;100632.66;;;1.32;51.16
76128;BME280;64873;50.102;14.434;2023-02-28T10:37:10;100637.03;;;1.54;50.33
76128;BME280;64873;50.102;14.434;2023-02-28T10:42:03;100634.03;;;1.59;50.49
76128;BME280;64873;50.102;14.434;2023-02-28T10:44:29;100631.34;;;1.70;50.53
76128;BME280;64873;50.102;14.434;2023-02-28T10:46:55;100629.31;;;1.63;49.78
76128;BME280;64873;50.102;14.434;2023-02-28T10:49:22;100614.09;;;1.66;50.36
76128;BME280;64873;50.102;14.434;2023-02-28T10:51:52;100626.22;;;1.57;50.63
76128;BME280;64873;50.102;14.434;2023-02-28T10:54:36;100634.91;;;1.69;50.28
76128;BME280;64873;50.102;14.434;2023-02-28T11:00:14;100623.75;;;1.45;49.55
76128;BME280;64873;50.102;14.434;2023-02-28T11:02:40;100613.59;;;1.72;49.96
76128;BME280;64873;50.102;14.434;2023-02-28T11:05:27;100615.28;;;1.73;49.60
76128;BME280;64873;50.102;14.434;2023-02-28T11:07:55;100625.31;;;1.79;49.84
76128;BME280;64873;50.102;14.434;2023-02-28T11:10:25;100628.25;;;1.65;50.18
76128;BME280;64873;50.102;14.434;2023-02-28T11:12:55;100623.44;;;1.91;49.62
76128;BME280;64873;50.102;14.434;2023-02-28T11:15:23;100624.56;;;1.89;50.01
76128;BME280;64873;50.102;14.434;2023-02-28T11:18:24;100623.81;;;1.86;49.75
76128;BME280;64873;50.102;14.434;2023-02-28T11:20:53;100617.59;;;1.87;49.22
76128;BME280;64873;50.102;14.434;2023-02-28T11:23:19;100601.28;;;1.94;49.65
76128;BME280;64873;50.102;14.434;2023-02-28T11:25:51;100609.31;;;2.13;49.72
76128;BME280;64873;50.102;14.434;2023-02-28T11:28:28;100602.53;;;2.20;49.90
76128;BME280;64873;50.102;14.434;2023-02-28T11:31:15;100607.44;;;2.04;49.50
76128;BME280;64873;50.102;14.434;2023-02-28T11:33:54;100599.47;;;2.15;49.14
76128;BME280;64873;50.102;14.434;2023-02-28T11:36:28;100591.69;;;2.13;48.80
76128;BME280;64873;50.102;14.434;2023-02-28T11:38:55;100591.75;;;2.23;48.63
76128;BME280;64873;50.102;14.434;2023-02-28T11:44:21;100593.44;;;2.34;48.18
76128;BME280;64873;50.102;14.434;2023-02-28T11:46:52;100578.66;;;2.43;48.88
76128;BME280;64873;50.102;14.434;2023-02-28T11:52:06;100590.78;;;2.55;48.65
76128;BME280;64873;50.102;14.434;2023-02-28T12:00:15;100579.56;;;2.32;48.77
76128;BME280;64873;50.102;14.434;2023-02-28T12:08:12;100574.03;;;2.65;48.41
76128;BME280;64873;50.102;14.434;2023-02-28T12:19:20;100568.00;;;2.54;47.78
76128;BME280;64873;50.102;14.434;2023-02-28T12:27:02;100554.72;;;2.65;47.77
76128;BME280;64873;50.102;14.434;2023-02-28T12:29:43;100560.53;;;2.59;47.65
76128;BME280;64873;50.102;14.434;2023-02-28T12:32:25;100550.97;;;2.67;47.53
76128;BME280;64873;50.102;14.434;2023-02-28T12:35:19;100556.13;;;2.79;47.81
76128;BME280;64873;50.102;14.434;2023-02-28T12:37:49;100559.84;;;2.66;47.81
76128;BME280;64873;50.102;14.434;2023-02-28T12:40:22;100549.38;;;2.96;46.58
76128;BME280;64873;50.102;14.434;2023-02-28T12:42:53;100552.28;;;3.02;46.49
76128;BME280;64873;50.102;14.434;2023-02-28T12:45:31;100550.03;;;2.78;47.20
76128;BME280;64873;50.102;14.434;2023-02-28T12:48:01;100551.72;;;2.99;47.23
76128;BME280;64873;50.102;14.434;2023-02-28T12:50:29;100547.00;;;2.92;47.32
76128;BME280;64873;50.102;14.434;2023-02-28T12:53:10;100544.22;;;2.84;47.24
76128;BME280;64873;50.102;14.434;2023-02-28T12:55:48;100547.16;;;3.01;46.77
76128;BME280;64873;50.102;14.434;2023-02-28T12:58:23;100543.41;;;2.93;46.71
76128;BME280;64873;50.102;14.434;2023-02-28T13:03:28;100550.06;;;2.98;46.91
76128;BME280;64873;50.102;14.434;2023-02-28T13:09:13;100542.75;;;3.11;46.98
76128;BME280;64873;50.102;14.434;2023-02-28T13:11:47;100539.94;;;3.03;46.76
76128;BME280;64873;50.102;14.434;2023-02-28T13:16:50;100529.94;;;3.16;46.09
76128;BME280;64873;50.102;14.434;2023-02-28T13:19:18;100536.59;;;3.10;46.70
76128;BME280;64873;50.102;14.434;2023-02-28T13:21:45;100522.00;;;2.97;47.02
76128;BME280;64873;50.102;14.434;2023-02-28T13:24:11;100525.19;;;3.00;46.90
76128;BME280;64873;50.102;14.434;2023-02-28T13:29:31;100521.88;;;3.08;47.08
76128;BME280;64873;50.102;14.434;2023-02-28T13:39:55;100533.41;;;3.07;47.30
76128;BME280;64873;50.102;14.434;2023-02-28T13:47:43;100510.06;;;3.12;47.30
76128;BME280;64873;50.102;14.434;2023-02-28T13:50:36;100516.16;;;3.03;47.54
76128;BME280;64873;50.102;14.434;2023-02-28T14:06:57;100516.31;;;3.20;47.16
76128;BME280;64873;50.102;14.434;2023-02-28T14:11:56;100505.91;;;3.29;46.48
76128;BME280;64873;50.102;14.434;2023-02-28T14:17:04;100508.97;;;3.24;46.83
76128;BME280;64873;50.102;14.434;2023-02-28T14:19:32;100513.41;;;3.43;47.23
76128;BME280;64873;50.102;14.434;2023-02-28T14:30:43;100500.19;;;3.14;46.97
76128;BME280;64873;50.102;14.434;2023-02-28T14:36:21;100489.22;;;3.18;46.86
76128;BME280;64873;50.102;14.434;2023-02-28T14:38:55;100484.47;;;3.22;47.15
76128;BME280;64873;50.102;14.434;2023-02-28T14:41:29;100483.22;;;3.16;47.41
76128;BME280;64873;50.102;14.434;2023-02-28T14:44:01;100480.59;;;3.26;47.97
76128;BME280;64873;50.102;14.434;2023-02-28T14:46:38;100484.19;;;2.96;48.35
76128;BME280;64873;50.102;14.434;2023-02-28T14:49:06;100486.72;;;3.07;48.35
76128;BME280;64873;50.102;14.434;2023-02-28T14:51:32;100484.19;;;2.96;48.43
76128;BME280;64873;50.102;14.434;2023-02-28T14:54:01;100483.25;;;3.07;48.22
76128;BME280;64873;50.102;14.434;2023-02-28T14:56:35;100479.06;;;3.14;47.72
76128;BME280;64873;50.102;14.434;2023-02-28T14:59:02;100491.72;;;3.20;47.70
76128;BME280;64873;50.102;14.434;2023-02-28T15:01:27;100488.94;;;3.12;47.99
76128;BME280;64873;50.102;14.434;2023-02-28T15:04:02;100492.25;;;3.04;48.32